createdAt,value
2022-11-08T00:00:13.062Z,14.00
2022-11-08T00:02:39.861Z,13.90
2022-11-08T00:05:25.250Z,13.90
2022-11-08T00:08:10.643Z,13.90
2022-11-08T00:10:55.914Z,13.90
2022-11-08T00:13:40.963Z,13.90
2022-11-08T00:16:07.872Z,13.80
2022-11-08T00:18:34.535Z,13.80
2022-11-08T00:21:02.691Z,13.80
2022-11-08T00:23:29.371Z,13.80
2022-11-08T00:25:56.085Z,13.80
2022-11-08T00:28:22.750Z,13.80
2022-11-08T00:30:49.656Z,13.70
2022-11-08T00:33:16.343Z,13.70
2022-11-08T00:35:43.055Z,13.70
2022-11-08T00:38:09.753Z,13.70
2022-11-08T00:40:36.582Z,13.70
2022-11-08T00:43:03.546Z,13.70
2022-11-08T00:45:30.205Z,13.70
2022-11-08T00:47:56.989Z,13.70
2022-11-08T00:50:23.748Z,13.70
2022-11-08T00:52:50.442Z,13.60
2022-11-08T00:55:17.116Z,13.60
2022-11-08T00:58:00.302Z,13.60
2022-11-08T01:00:28.190Z,13.60
2022-11-08T01:03:14.838Z,13.60
2022-11-08T01:05:41.748Z,13.60
2022-11-08T01:08:09.116Z,13.60
2022-11-08T01:10:36.244Z,13.50
2022-11-08T01:13:03.332Z,13.50
2022-11-08T01:15:36.133Z,13.50
2022-11-08T01:18:03.943Z,13.50
2022-11-08T01:20:30.736Z,13.50
2022-11-08T01:22:57.456Z,13.50
2022-11-08T01:25:24.101Z,13.40
2022-11-08T01:27:50.815Z,13.50
2022-11-08T01:30:17.816Z,13.40
2022-11-08T01:32:44.462Z,13.40
2022-11-08T01:35:11.153Z,13.40
2022-11-08T01:37:37.797Z,13.40
2022-11-08T01:40:05.264Z,13.40
2022-11-08T01:42:33.042Z,13.40
2022-11-08T01:45:00.906Z,13.40
2022-11-08T01:47:27.796Z,13.40
2022-11-08T01:50:15.816Z,13.40
2022-11-08T01:52:50.939Z,13.40
2022-11-08T01:55:20.123Z,13.40
2022-11-08T01:57:52.320Z,13.40
2022-11-08T02:00:19.831Z,13.40
2022-11-08T02:03:00.010Z,13.40
2022-11-08T02:05:29.510Z,13.30
2022-11-08T02:08:03.336Z,13.30
2022-11-08T02:10:35.357Z,13.40
2022-11-08T02:13:05.272Z,13.40
2022-11-08T02:15:32.648Z,13.30
2022-11-08T02:17:59.773Z,13.30
2022-11-08T02:20:27.239Z,13.40
2022-11-08T02:23:39.925Z,13.30
2022-11-08T02:26:06.896Z,13.40
2022-11-08T02:28:39.932Z,13.30
2022-11-08T02:31:09.868Z,13.30
2022-11-08T02:33:36.774Z,13.30
2022-11-08T02:36:04.865Z,13.30
2022-11-08T02:38:34.483Z,13.20
2022-11-08T02:41:01.196Z,13.20
2022-11-08T02:43:27.856Z,13.20
2022-11-08T02:45:54.741Z,13.10
2022-11-08T02:48:21.595Z,13.10
2022-11-08T02:50:48.610Z,13.10
2022-11-08T02:53:15.681Z,13.00
2022-11-08T02:55:42.709Z,13.00
2022-11-08T02:58:10.133Z,13.00
2022-11-08T03:00:37.488Z,12.90
2022-11-08T03:03:04.553Z,12.90
2022-11-08T03:05:32.080Z,12.80
2022-11-08T03:07:58.995Z,12.80
2022-11-08T03:10:27.402Z,12.70
2022-11-08T03:13:02.819Z,12.70
2022-11-08T03:16:38.417Z,12.70
2022-11-08T03:19:05.205Z,12.60
2022-11-08T03:21:32.029Z,12.60
2022-11-08T03:23:58.726Z,12.60
2022-11-08T03:26:25.369Z,12.50
2022-11-08T03:28:52.019Z,12.50
2022-11-08T03:31:18.689Z,12.50
2022-11-08T03:33:45.336Z,12.50
2022-11-08T03:36:11.996Z,12.50
2022-11-08T03:38:38.656Z,12.50
2022-11-08T03:41:05.742Z,12.50
2022-11-08T03:43:32.383Z,12.50
2022-11-08T03:45:59.027Z,12.50
2022-11-08T03:48:25.670Z,12.40
2022-11-08T03:50:52.502Z,12.40
2022-11-08T03:53:19.249Z,12.40
2022-11-08T03:55:45.977Z,12.40
2022-11-08T03:58:12.714Z,12.30
2022-11-08T04:00:39.780Z,12.40
2022-11-08T04:03:06.666Z,12.30
2022-11-08T04:05:33.583Z,12.40
2022-11-08T04:08:01.296Z,12.30
2022-11-08T04:10:28.276Z,12.30
2022-11-08T04:13:13.464Z,12.30
2022-11-08T04:15:40.183Z,12.30
2022-11-08T04:18:25.415Z,12.30
2022-11-08T04:21:10.895Z,12.30
2022-11-08T04:23:38.152Z,12.30
2022-11-08T04:26:07.451Z,12.30
2022-11-08T04:28:37.473Z,12.30
2022-11-08T04:31:13.831Z,12.30
2022-11-08T04:33:41.068Z,12.30
2022-11-08T04:36:18.366Z,12.30
2022-11-08T04:38:49.331Z,12.30
2022-11-08T04:41:21.956Z,12.30
2022-11-08T04:43:51.085Z,12.30
2022-11-08T04:46:20.211Z,12.30
2022-11-08T04:48:47.568Z,12.30
2022-11-08T04:51:20.402Z,12.20
2022-11-08T04:53:47.256Z,12.30
2022-11-08T04:56:19.635Z,12.30
2022-11-08T04:58:55.080Z,12.30
2022-11-08T05:01:25.445Z,12.30
2022-11-08T05:03:53.699Z,12.30
2022-11-08T05:06:25.351Z,12.30
2022-11-08T05:08:52.075Z,12.30
2022-11-08T05:11:21.406Z,12.30
2022-11-08T05:13:49.271Z,12.30
2022-11-08T05:16:31.049Z,12.30
2022-11-08T05:18:57.644Z,12.30
2022-11-08T05:21:43.886Z,12.30
2022-11-08T05:24:13.100Z,12.30
2022-11-08T05:26:42.541Z,12.30
2022-11-08T05:29:10.056Z,12.30
2022-11-08T05:31:36.741Z,12.30
2022-11-08T05:34:03.639Z,12.30
2022-11-08T05:36:30.346Z,12.30
2022-11-08T05:38:57.347Z,12.30
2022-11-08T05:41:25.348Z,12.30
2022-11-08T05:43:53.966Z,12.30
2022-11-08T05:46:22.369Z,12.40
2022-11-08T05:48:49.503Z,12.40
2022-11-08T05:51:18.401Z,12.40
2022-11-08T05:53:48.722Z,12.40
2022-11-08T05:56:16.132Z,12.40
2022-11-08T05:58:42.795Z,12.40
2022-11-08T06:01:15.397Z,12.40
2022-11-08T06:03:42.604Z,12.40
2022-11-08T06:06:12.228Z,12.40
2022-11-08T06:08:39.591Z,12.40
2022-11-08T06:11:15.113Z,12.40
2022-11-08T06:13:43.109Z,12.40
2022-11-08T06:16:12.573Z,12.40
2022-11-08T06:18:40.170Z,12.40
2022-11-08T06:21:13.245Z,12.30
2022-11-08T06:23:40.309Z,12.40
2022-11-08T06:26:07.340Z,12.30
2022-11-08T06:28:34.911Z,12.30
2022-11-08T06:31:03.112Z,12.40
2022-11-08T06:33:30.511Z,12.30
2022-11-08T06:35:57.529Z,12.40
2022-11-08T06:38:24.626Z,12.40
2022-11-08T06:40:51.493Z,12.30
2022-11-08T06:43:19.795Z,12.40
2022-11-08T06:45:47.816Z,12.30
2022-11-08T06:48:14.770Z,12.30
2022-11-08T06:50:43.237Z,12.40
2022-11-08T06:53:13.001Z,12.40
2022-11-08T06:55:40.020Z,12.40
2022-11-08T06:58:06.890Z,12.30
2022-11-08T07:00:33.966Z,12.30
2022-11-08T07:03:02.582Z,12.40
2022-11-08T07:05:31.156Z,12.40
2022-11-08T07:07:58.623Z,12.40
2022-11-08T07:10:27.720Z,12.40
2022-11-08T07:13:13.705Z,12.40
2022-11-08T07:15:41.241Z,12.50
2022-11-08T07:18:12.071Z,12.50
2022-11-08T07:20:39.781Z,12.50
2022-11-08T07:23:07.292Z,12.50
2022-11-08T07:25:34.810Z,12.50
2022-11-08T07:28:04.661Z,12.60
2022-11-08T07:30:32.937Z,12.60
2022-11-08T07:32:59.663Z,12.60
2022-11-08T07:35:30.062Z,12.60
2022-11-08T07:37:57.163Z,12.70
2022-11-08T07:40:24.400Z,12.70
2022-11-08T07:43:11.260Z,12.80
2022-11-08T07:45:38.002Z,12.80
2022-11-08T07:48:11.992Z,12.90
2022-11-08T07:50:41.079Z,12.90
2022-11-08T07:53:08.394Z,12.90
2022-11-08T07:55:39.647Z,13.00
2022-11-08T07:58:07.487Z,13.00
2022-11-08T08:00:36.490Z,13.00
2022-11-08T08:03:04.733Z,13.00
2022-11-08T08:05:36.567Z,13.10
2022-11-08T08:08:04.229Z,13.10
2022-11-08T08:10:32.292Z,13.20
2022-11-08T08:12:58.980Z,13.20
2022-11-08T08:15:26.286Z,13.20
2022-11-08T08:17:53.371Z,13.30
2022-11-08T08:20:20.520Z,13.30
2022-11-08T08:22:49.696Z,13.30
2022-11-08T08:25:17.104Z,13.40
2022-11-08T08:27:49.002Z,13.40
2022-11-08T08:30:17.227Z,13.40
2022-11-08T08:32:47.963Z,13.40
2022-11-08T08:35:20.109Z,13.50
2022-11-08T08:37:46.813Z,13.50
2022-11-08T08:40:13.621Z,13.50
2022-11-08T08:42:40.329Z,13.50
2022-11-08T08:45:13.551Z,13.60
2022-11-08T08:47:43.960Z,13.60
2022-11-08T08:50:13.071Z,13.60
2022-11-08T08:52:40.550Z,13.60
2022-11-08T08:55:07.584Z,13.70
2022-11-08T08:57:34.291Z,13.70
2022-11-08T09:02:47.742Z,13.90
2022-11-08T09:05:17.088Z,13.90
2022-11-08T09:07:43.824Z,14.00
2022-11-08T09:10:11.835Z,14.00
2022-11-08T09:12:39.044Z,14.00
2022-11-08T09:15:06.648Z,14.00
2022-11-08T09:17:33.753Z,14.00
2022-11-08T09:20:03.273Z,14.10
2022-11-08T09:22:33.295Z,14.10
2022-11-08T09:25:03.359Z,14.20
2022-11-08T09:27:33.065Z,14.10
2022-11-08T09:29:59.934Z,14.20
2022-11-08T09:32:46.610Z,14.20
2022-11-08T09:35:19.567Z,14.20
2022-11-08T09:37:49.682Z,14.20
2022-11-08T09:40:20.733Z,14.30
2022-11-08T09:43:29.221Z,14.30
2022-11-08T09:45:57.453Z,14.30
2022-11-08T09:48:34.119Z,14.40
2022-11-08T09:51:31.751Z,14.40
2022-11-08T09:54:02.817Z,14.40
2022-11-08T09:56:37.187Z,14.50
2022-11-08T09:59:30.195Z,14.50
2022-11-08T10:01:57.080Z,14.50
2022-11-08T10:04:28.495Z,14.60
2022-11-08T10:07:06.041Z,14.60
2022-11-08T10:10:05.920Z,14.60
2022-11-08T10:12:57.323Z,14.60
2022-11-08T10:15:28.564Z,14.70
2022-11-08T10:18:10.746Z,14.70
2022-11-08T10:20:46.453Z,14.80
2022-11-08T10:23:26.474Z,14.80
2022-11-08T10:25:53.151Z,14.80
2022-11-08T10:28:25.786Z,14.90
2022-11-08T10:30:55.377Z,14.90
2022-11-08T10:33:32.493Z,14.90
2022-11-08T10:36:13.508Z,15.00
2022-11-08T10:38:51.707Z,15.00
2022-11-08T10:41:24.726Z,15.00
2022-11-08T10:44:19.852Z,15.00
2022-11-08T10:47:27.384Z,15.00
2022-11-08T10:50:02.509Z,15.10
2022-11-08T10:52:55.105Z,15.10
2022-11-08T10:55:24.737Z,15.10
2022-11-08T10:57:51.633Z,15.20
2022-11-08T11:00:30.565Z,15.20
2022-11-08T11:03:04.221Z,15.20
2022-11-08T11:05:34.312Z,15.20
2022-11-08T11:08:10.012Z,15.20
2022-11-08T11:10:47.813Z,15.30
2022-11-08T11:13:20.429Z,15.30
2022-11-08T11:15:52.128Z,15.40
2022-11-08T11:18:21.254Z,15.50
2022-11-08T11:21:11.260Z,15.50
2022-11-08T11:23:47.650Z,15.60
2022-11-08T11:26:29.357Z,15.60
2022-11-08T11:29:19.360Z,15.60
2022-11-08T11:31:52.489Z,15.70
2022-11-08T11:34:19.199Z,15.80
2022-11-08T11:37:09.345Z,15.80
2022-11-08T11:39:45.949Z,15.90
2022-11-08T11:42:47.486Z,15.90
2022-11-08T11:45:27.686Z,16.00
2022-11-08T11:47:57.574Z,16.00
2022-11-08T11:50:41.498Z,16.10
2022-11-08T11:53:29.720Z,16.10
2022-11-08T11:56:20.799Z,16.10
2022-11-08T11:59:02.684Z,16.10
2022-11-08T12:01:47.487Z,16.20
2022-11-08T12:04:26.193Z,16.20
2022-11-08T12:07:12.999Z,16.30
2022-11-08T12:09:50.798Z,16.30
2022-11-08T12:12:39.128Z,16.40
2022-11-08T12:15:41.691Z,16.40
2022-11-08T12:18:49.543Z,16.30
2022-11-08T12:21:45.671Z,16.30
2022-11-08T12:24:32.542Z,16.20
2022-11-08T12:27:24.053Z,16.10
2022-11-08T12:30:04.321Z,16.00
2022-11-08T12:32:37.020Z,16.00
2022-11-08T12:35:19.698Z,16.00
2022-11-08T12:38:04.860Z,16.00
2022-11-08T12:40:44.330Z,16.00
2022-11-08T12:43:45.263Z,16.00
2022-11-08T12:46:19.653Z,16.00
2022-11-08T12:49:14.618Z,16.00
2022-11-08T12:52:17.102Z,16.00
2022-11-08T12:54:58.825Z,16.00
2022-11-08T12:57:28.323Z,16.00
2022-11-08T13:00:29.173Z,15.90
2022-11-08T13:03:15.238Z,15.90
2022-11-08T13:05:52.518Z,15.90
2022-11-08T13:08:26.960Z,15.90
2022-11-08T13:10:59.378Z,15.90
2022-11-08T13:13:38.107Z,16.00
2022-11-08T13:16:12.045Z,16.00
2022-11-08T13:18:54.145Z,16.00
2022-11-08T13:21:30.152Z,16.00
2022-11-08T13:24:09.983Z,16.00
2022-11-08T13:26:50.181Z,15.90
2022-11-08T13:29:20.088Z,15.90
2022-11-08T13:31:56.991Z,15.90
2022-11-08T13:34:55.310Z,15.90
2022-11-08T13:37:43.096Z,15.90
2022-11-08T13:40:13.116Z,15.80
2022-11-08T13:42:57.841Z,15.80
2022-11-08T13:45:26.786Z,15.80
2022-11-08T13:47:56.229Z,15.70
2022-11-08T13:50:29.278Z,15.80
2022-11-08T13:53:22.194Z,15.80
2022-11-08T13:56:18.991Z,15.80
2022-11-08T13:58:46.998Z,15.80
2022-11-08T14:01:23.094Z,15.80
2022-11-08T14:03:54.744Z,15.70
2022-11-08T14:06:32.185Z,15.80
2022-11-08T14:09:13.619Z,15.80
2022-11-08T14:11:42.931Z,15.90
2022-11-08T14:14:48.040Z,15.90
2022-11-08T14:17:39.383Z,16.00
2022-11-08T14:20:31.365Z,16.00
2022-11-08T14:23:04.714Z,16.10
2022-11-08T14:25:37.770Z,16.10
2022-11-08T14:28:04.701Z,16.10
2022-11-08T14:30:33.535Z,16.10
2022-11-08T14:33:30.094Z,16.10
2022-11-08T14:36:09.178Z,16.10
2022-11-08T14:38:38.397Z,16.10
2022-11-08T14:41:07.063Z,16.10
2022-11-08T14:43:47.841Z,16.10
2022-11-08T14:46:31.588Z,16.10
2022-11-08T14:48:58.533Z,16.10
2022-11-08T14:51:26.290Z,16.00
2022-11-08T14:54:01.144Z,16.00
2022-11-08T14:56:36.397Z,16.10
2022-11-08T14:59:10.279Z,16.00
2022-11-08T15:01:37.450Z,15.90
2022-11-08T15:04:39.125Z,15.90
2022-11-08T15:07:08.899Z,15.90
2022-11-08T15:09:36.242Z,15.90
2022-11-08T15:12:12.912Z,15.80
2022-11-08T15:14:52.021Z,15.90
2022-11-08T15:17:31.213Z,15.80
2022-11-08T15:20:13.239Z,15.80
2022-11-08T15:22:44.269Z,15.80
2022-11-08T15:25:25.037Z,15.80
2022-11-08T15:28:13.985Z,15.80
2022-11-08T15:30:45.471Z,15.70
2022-11-08T15:33:22.638Z,15.70
2022-11-08T15:35:50.019Z,15.70
2022-11-08T15:38:35.011Z,15.70
2022-11-08T15:41:04.713Z,15.70
2022-11-08T15:43:31.350Z,15.60
2022-11-08T15:46:03.471Z,15.60
2022-11-08T15:48:30.488Z,15.60
2022-11-08T15:50:59.173Z,15.50
2022-11-08T15:53:27.416Z,15.50
2022-11-08T15:55:57.910Z,15.50
2022-11-08T15:58:28.863Z,15.50
2022-11-08T16:00:57.733Z,15.50
2022-11-08T16:03:24.583Z,15.50
2022-11-08T16:05:53.610Z,15.40
2022-11-08T16:08:21.205Z,15.40
2022-11-08T16:10:53.975Z,15.40
2022-11-08T16:13:30.529Z,15.40
2022-11-08T16:15:58.258Z,15.40
2022-11-08T16:18:25.228Z,15.30
2022-11-08T16:20:52.192Z,15.30
2022-11-08T16:23:19.117Z,15.30
2022-11-08T16:25:50.823Z,15.30
2022-11-08T16:28:38.074Z,15.30
2022-11-08T16:31:07.434Z,15.20
2022-11-08T16:33:35.470Z,15.20
2022-11-08T16:36:23.740Z,15.20
2022-11-08T16:38:53.419Z,15.20
2022-11-08T16:41:20.939Z,15.20
2022-11-08T16:43:47.607Z,15.10
2022-11-08T16:46:14.965Z,15.10
2022-11-08T16:48:47.106Z,15.10
2022-11-08T16:51:21.579Z,15.00
2022-11-08T16:53:49.250Z,15.00
2022-11-08T16:56:16.182Z,15.00
2022-11-08T16:58:43.658Z,15.00
2022-11-08T17:01:22.077Z,15.00
2022-11-08T17:03:48.963Z,15.00
2022-11-08T17:06:18.105Z,15.00
2022-11-08T17:08:48.458Z,15.00
2022-11-08T17:11:23.762Z,14.90
2022-11-08T17:13:52.585Z,14.90
2022-11-08T17:16:20.069Z,14.90
2022-11-08T17:18:52.248Z,15.00
2022-11-08T17:24:06.809Z,15.00
2022-11-08T17:26:33.484Z,15.00
2022-11-08T17:29:00.265Z,15.00
2022-11-08T17:31:26.905Z,15.00
2022-11-08T17:33:55.202Z,15.00
2022-11-08T17:36:21.922Z,15.00
2022-11-08T17:38:48.592Z,15.00
2022-11-08T17:41:15.677Z,15.00
2022-11-08T17:43:43.219Z,15.00
2022-11-08T17:46:11.598Z,15.00
2022-11-08T17:48:40.997Z,15.00
2022-11-08T17:51:08.581Z,15.00
2022-11-08T17:53:38.626Z,15.00
2022-11-08T17:56:06.393Z,15.00
2022-11-08T17:58:37.843Z,15.00
2022-11-08T18:01:07.187Z,15.00
2022-11-08T18:03:34.818Z,15.00
2022-11-08T18:06:07.815Z,15.10
2022-11-08T18:08:35.118Z,15.10
2022-11-08T18:11:02.691Z,15.10
2022-11-08T18:13:29.826Z,15.10
2022-11-08T18:16:08.395Z,15.10
2022-11-08T18:18:35.317Z,15.10
2022-11-08T18:21:02.466Z,15.10
2022-11-08T18:23:31.737Z,15.10
2022-11-08T18:26:01.208Z,15.10
2022-11-08T18:28:32.683Z,15.20
2022-11-08T18:31:14.690Z,15.20
2022-11-08T18:33:42.639Z,15.20
2022-11-08T18:36:15.478Z,15.20
2022-11-08T18:38:44.662Z,15.20
2022-11-08T18:41:17.587Z,15.20
2022-11-08T18:43:44.756Z,15.20
2022-11-08T18:46:14.297Z,15.20
2022-11-08T18:48:43.187Z,15.20
2022-11-08T18:51:12.173Z,15.20
2022-11-08T18:53:44.762Z,15.20
2022-11-08T18:56:14.777Z,15.30
2022-11-08T18:58:42.976Z,15.20
2022-11-08T19:01:10.001Z,15.30
2022-11-08T19:03:37.016Z,15.30
2022-11-08T19:06:04.198Z,15.30
2022-11-08T19:08:32.531Z,15.30
2022-11-08T19:11:01.562Z,15.30
2022-11-08T19:13:30.523Z,15.30
2022-11-08T19:16:01.471Z,15.30
2022-11-08T19:18:29.516Z,15.30
2022-11-08T19:21:00.109Z,15.30
2022-11-08T19:23:26.986Z,15.30
2022-11-08T19:25:59.985Z,15.30
2022-11-08T19:28:32.652Z,15.30
2022-11-08T19:31:00.282Z,15.30
2022-11-08T19:33:28.855Z,15.30
2022-11-08T19:36:06.007Z,15.30
2022-11-08T19:38:34.232Z,15.30
2022-11-08T19:41:03.788Z,15.30
2022-11-08T19:43:31.260Z,15.30
2022-11-08T19:46:02.394Z,15.30
2022-11-08T19:48:33.418Z,15.30
2022-11-08T19:51:02.105Z,15.30
2022-11-08T19:53:31.960Z,15.40
2022-11-08T19:56:03.901Z,15.40
2022-11-08T19:58:34.590Z,15.30
2022-11-08T20:01:15.477Z,15.30
2022-11-08T20:03:45.570Z,15.20
2022-11-08T20:06:13.175Z,15.10
2022-11-08T20:08:39.898Z,15.10
2022-11-08T20:11:13.514Z,15.00
2022-11-08T20:13:40.345Z,15.00
2022-11-08T20:16:17.016Z,14.90
2022-11-08T20:18:46.513Z,14.90
2022-11-08T20:21:17.905Z,14.90
2022-11-08T20:23:50.027Z,14.80
2022-11-08T20:26:22.335Z,14.90
2022-11-08T20:28:56.285Z,14.80
2022-11-08T20:31:26.466Z,14.90
2022-11-08T20:33:54.085Z,14.90
2022-11-08T20:36:23.287Z,14.90
2022-11-08T20:38:54.497Z,14.90
2022-11-08T20:41:24.594Z,14.90
2022-11-08T20:43:53.884Z,14.90
2022-11-08T20:46:25.844Z,14.90
2022-11-08T20:49:00.240Z,14.90
2022-11-08T20:51:30.886Z,14.90
2022-11-08T20:54:01.487Z,14.80
2022-11-08T20:56:31.320Z,14.90
2022-11-08T20:59:07.222Z,14.80
2022-11-08T21:01:39.328Z,14.80
2022-11-08T21:04:06.259Z,14.90
2022-11-08T21:06:36.604Z,14.90
2022-11-08T21:09:34.476Z,14.90
2022-11-08T21:11:59.830Z,14.90
2022-11-08T21:14:29.226Z,14.90
2022-11-08T21:17:20.856Z,15.00
2022-11-08T21:19:51.796Z,15.00
2022-11-08T21:22:24.072Z,15.00
2022-11-08T21:24:50.842Z,15.00
2022-11-08T21:27:17.890Z,15.00
2022-11-08T21:29:44.950Z,15.00
2022-11-08T21:32:11.649Z,14.90
2022-11-08T21:34:39.651Z,14.90
2022-11-08T21:37:07.876Z,14.90
2022-11-08T21:39:34.601Z,14.80
2022-11-08T21:42:01.263Z,14.80
2022-11-08T21:44:27.939Z,14.80
2022-11-08T21:46:54.705Z,14.80
2022-11-08T21:49:21.569Z,14.80
2022-11-08T21:51:48.234Z,14.80
2022-11-08T21:54:15.393Z,14.80
2022-11-08T21:56:42.053Z,14.80
2022-11-08T21:59:10.369Z,14.80
2022-11-08T22:01:37.104Z,14.70
2022-11-08T22:04:03.894Z,14.70
2022-11-08T22:06:30.601Z,14.70
2022-11-08T22:08:57.412Z,14.60
2022-11-08T22:11:24.178Z,14.70
2022-11-08T22:13:50.874Z,14.70
2022-11-08T22:16:17.714Z,14.70
2022-11-08T22:21:41.298Z,14.70
2022-11-08T22:24:22.300Z,14.70
2022-11-08T22:26:50.671Z,14.80
2022-11-08T22:29:18.056Z,14.90
2022-11-08T22:31:45.350Z,14.90
2022-11-08T22:34:12.620Z,14.90
2022-11-08T22:36:44.779Z,15.00
2022-11-08T22:39:14.427Z,15.00
2022-11-08T22:41:42.122Z,15.00
2022-11-08T22:44:11.789Z,15.10
2022-11-08T22:46:40.781Z,15.10
2022-11-08T22:49:07.636Z,15.10
2022-11-08T22:51:34.352Z,15.10
2022-11-08T22:54:01.160Z,15.10
2022-11-08T22:56:28.233Z,15.10
2022-11-08T22:58:54.980Z,15.00
2022-11-08T23:01:21.774Z,15.10
2022-11-08T23:03:48.966Z,15.10
2022-11-08T23:06:16.077Z,15.00
2022-11-08T23:08:42.932Z,15.00
2022-11-08T23:11:28.555Z,15.00
2022-11-08T23:14:14.081Z,15.00
2022-11-08T23:16:43.900Z,15.00
2022-11-08T23:19:35.291Z,15.00
2022-11-08T23:22:22.090Z,15.00
2022-11-08T23:24:48.745Z,15.00
2022-11-08T23:27:36.275Z,15.00
2022-11-08T23:30:23.197Z,15.00
2022-11-08T23:32:50.780Z,15.00
2022-11-08T23:35:19.554Z,15.00
2022-11-08T23:37:46.463Z,15.00
2022-11-08T23:40:35.041Z,15.00
2022-11-08T23:43:33.677Z,15.00
2022-11-08T23:46:12.412Z,15.00
2022-11-08T23:48:40.432Z,15.00
2022-11-08T23:51:08.037Z,15.00
2022-11-08T23:53:37.043Z,15.00
2022-11-08T23:56:05.061Z,15.00
2022-11-08T23:58:32.712Z,15.00
